Terminal Aerodrome Forecast
Issued by NWS

Home | Current Version | Previous Version | Text Only | Print | Product List | Glossary On
Versions: 1 2 3 4 5 6 7 8 9 10 11 12 13 14 15 16 17 18 19 20 21 22 23 24 25 26 27
000
FTUS43 KDVN 241100
TAFCID
TAF
KCID 241130Z 2412/2512 VRB02KT 1/4SM FG VV001
     FM241500 16003KT 1/2SM FG VV003
     FM241530 17005KT 1 1/2SM BR OVC004
     FM241600 17007KT 6SM BR SCT004 BKN015
     FM241900 18009KT P6SM BKN025
     FM250100 17004KT 3/4SM BR OVC010
     FM250900 28007KT 4SM BR SCT250=

USA.gov is the U.S. government's official web portal to all federal, state and local government web resources and services.